Weather at Palmahim Air Base

Public forecast

Using degrees Celsius for public forecast. Weather courtesy of forecast.io.

Closest aviation weather report (METAR) to Palmahim Air Base

Closest report is Ben Gurion International Airport, 12.1 nm (22.4 km) NE.

2022/12/01 23:50 (retrieved 22 minutes ago)

LLBG 012350Z VRB01KT CAVOK 13/10 Q1018 NOSIG

Closest aviation forecast (TAF) to Palmahim Air Base

Forecast is more than 6 hours old.

Closest forecast is Rosh Pina Airport, 78.9 nm (146.1 km) NE.

2022/12/01 12:24 Ammendment (retrieved 12 hours ago)

TAF AMD LLIB 011621Z 0112/0212 CNL